Weather at Aji Pangeran Tumenggung Pranoto International Airport

Public forecast

Using degrees Celsius for public forecast. Weather courtesy of forecast.io.

Closest aviation weather report (METAR) to Aji Pangeran Tumenggung Pranoto International Airport

Report is more than 2 hours old.

Closest report is Sultan Aji Muhamad Sulaiman Airport, 57.8 nm (107.0 km) SSW. Retrieved 2021/01/17 12:00 UTC (3 hours ago):

WALL 171200Z 28001KT 9000 SCT018 25/24 Q1008

Closest aviation forecast (TAF) to Aji Pangeran Tumenggung Pranoto International Airport

Closest forecast is Temindung Airport, 8.6 nm (16.0 km) SW. Retrieved UTC (0 seconds ago):